Time;durP1;ratioP1;P1;durP2;ratioP2;P2;SDS_P1;SDS_P2;PMS_P1;PMS_P2;Temp;Humidity;BMP_temperature;BMP_pressure;BME280_temperature;BME280_humidity;BME280_pressure;Samples;Min_cycle;Max_cycle;Signal;HPM_P1;HPM_P2
2021/07/13 00:01:57;;;;;;;24.08;11.25;;;;;;;;;;4940698;29;20034;-76
2021/07/13 00:04:23;;;;;;;15.40;11.40;;;;;;;;;;4936493;29;20478;-73
2021/07/13 00:06:49;;;;;;;22.23;11.77;;;;;;;;;;4938815;29;20024;-78
2021/07/13 00:09:15;;;;;;;15.85;10.88;;;;;;;;;;4939493;29;20549;-74
2021/07/13 00:11:42;;;;;;;12.85;11.52;;;;;;;;;;4942564;29;20103;-76
2021/07/13 00:14:08;;;;;;;12.18;10.90;;;;;;;;;;4938108;29;20035;-72
2021/07/13 00:16:34;;;;;;;15.75;10.98;;;;;;;;;;4944356;29;20040;-76
2021/07/13 00:19:00;;;;;;;13.07;11.02;;;;;;;;;;4943011;29;20588;-75
2021/07/13 00:21:26;;;;;;;13.15;10.77;;;;;;;;;;4945479;29;20155;-76
2021/07/13 00:23:52;;;;;;;13.90;10.82;;;;;;;;;;4941699;29;20039;-73
2021/07/13 00:26:18;;;;;;;11.88;10.63;;;;;;;;;;4944792;29;20489;-74
2021/07/13 00:28:45;;;;;;;12.55;10.85;;;;;;;;;;4939757;29;20031;-72
2021/07/13 00:31:11;;;;;;;12.60;11.30;;;;;;;;;;4941856;29;20028;-75
2021/07/13 00:33:37;;;;;;;13.13;11.27;;;;;;;;;;4937316;29;20023;-76
2021/07/13 00:36:03;;;;;;;13.07;11.13;;;;;;;;;;4938439;29;20032;-74
2021/07/13 00:38:29;;;;;;;12.18;10.85;;;;;;;;;;4942895;29;20556;-76
2021/07/13 00:40:55;;;;;;;12.63;11.32;;;;;;;;;;4931223;29;20393;-74
2021/07/13 00:43:21;;;;;;;12.40;11.00;;;;;;;;;;4937185;29;20040;-72
2021/07/13 00:45:47;;;;;;;13.27;10.95;;;;;;;;;;4936380;29;20032;-75
2021/07/13 00:48:14;;;;;;;12.70;11.40;;;;;;;;;;4946543;29;20066;-78
2021/07/13 00:50:43;;;;;;;15.23;11.93;;;;;;;;;;4937443;29;20118;-79
2021/07/13 00:53:10;;;;;;;12.65;11.32;;;;;;;;;;4942356;29;20497;-77
2021/07/13 00:55:36;;;;;;;13.52;11.73;;;;;;;;;;4950564;29;20039;-78
2021/07/13 00:58:04;;;;;;;12.82;11.45;;;;;;;;;;4943350;29;20027;-69
2021/07/13 01:00:30;;;;;;;14.27;11.43;;;;;;;;;;4938336;29;20032;-78
2021/07/13 01:02:58;;;;;;;12.30;11.10;;;;;;;;;;4941712;29;20026;-79
2021/07/13 01:05:28;;;;;;;14.75;11.45;;;;;;;;;;4940825;29;20046;-76
2021/07/13 01:07:56;;;;;;;13.95;11.95;;;;;;;;;;4941153;29;20508;-69
2021/07/13 01:10:58;;;;;;;13.07;11.57;;;;;;;;;;4932621;29;20051;-78
2021/07/13 01:13:29;;;;;;;15.50;12.02;;;;;;;;;;4857001;29;20040;-69
2021/07/13 01:16:08;;;;;;;13.80;12.20;;;;;;;;;;4857689;29;20086;-72
2021/07/13 01:18:38;;;;;;;13.13;11.80;;;;;;;;;;4857885;29;20660;-68
2021/07/13 01:21:19;;;;;;;14.18;11.80;;;;;;;;;;4852492;29;20049;-68
2021/07/13 01:24:03;;;;;;;13.23;11.80;;;;;;;;;;4856216;29;20053;-77
2021/07/13 01:26:47;;;;;;;13.23;11.88;;;;;;;;;;4857698;29;20089;-81
2021/07/13 01:29:14;;;;;;;12.88;11.30;;;;;;;;;;4853748;29;20064;-80
2021/07/13 01:31:42;;;;;;;14.05;11.85;;;;;;;;;;4856940;29;20035;-67
2021/07/13 01:34:14;;;;;;;13.90;11.63;;;;;;;;;;4857354;29;20041;-80
2021/07/13 01:36:44;;;;;;;13.90;11.60;;;;;;;;;;4857579;29;20506;-80
2021/07/13 01:39:10;;;;;;;12.45;11.00;;;;;;;;;;4857393;29;20043;-78
2021/07/13 01:41:37;;;;;;;14.38;10.95;;;;;;;;;;4857496;29;20120;-73
2021/07/13 01:44:03;;;;;;;12.57;11.27;;;;;;;;;;4857036;29;20445;-79
2021/07/13 01:46:30;;;;;;;12.90;11.52;;;;;;;;;;4865434;29;20085;-77
2021/07/13 01:48:58;;;;;;;13.73;11.00;;;;;;;;;;4941703;29;20032;-79
2021/07/13 01:51:26;;;;;;;14.20;11.55;;;;;;;;;;4939448;29;20176;-79
2021/07/13 01:53:54;;;;;;;12.95;10.95;;;;;;;;;;4945738;29;20023;-69
2021/07/13 01:56:22;;;;;;;12.95;11.65;;;;;;;;;;4922459;29;20031;-71
2021/07/13 01:58:48;;;;;;;15.05;11.70;;;;;;;;;;4945311;29;20027;-78
2021/07/13 02:01:18;;;;;;;13.93;12.32;;;;;;;;;;4936846;29;20035;-77
2021/07/13 02:03:45;;;;;;;12.32;10.80;;;;;;;;;;4939377;29;20498;-75
2021/07/13 02:06:12;;;;;;;15.27;11.23;;;;;;;;;;4939852;29;20045;-72
2021/07/13 02:08:39;;;;;;;16.05;11.35;;;;;;;;;;4937618;29;20027;-79
2021/07/13 02:11:06;;;;;;;20.90;10.60;;;;;;;;;;4937296;29;20110;-69
2021/07/13 02:13:32;;;;;;;16.80;11.23;;;;;;;;;;4944112;29;20106;-79
2021/07/13 02:15:59;;;;;;;16.38;10.98;;;;;;;;;;4952826;29;20385;-80
2021/07/13 02:18:25;;;;;;;14.00;10.50;;;;;;;;;;4944911;29;20063;-72
2021/07/13 02:20:52;;;;;;;13.82;11.20;;;;;;;;;;4940554;29;20485;-71
2021/07/13 02:23:18;;;;;;;14.43;10.40;;;;;;;;;;4937415;29;20058;-79
2021/07/13 02:25:45;;;;;;;12.50;10.85;;;;;;;;;;4939757;29;20046;-75
2021/07/13 02:28:16;;;;;;;12.90;10.77;;;;;;;;;;4934378;29;20098;-71
2021/07/13 02:30:48;;;;;;;13.02;10.93;;;;;;;;;;4947443;29;20111;-73
2021/07/13 02:33:28;;;;;;;13.05;10.70;;;;;;;;;;4943045;29;20046;-71
2021/07/13 02:36:00;;;;;;;12.10;10.27;;;;;;;;;;4935502;29;20046;-77
2021/07/13 02:38:27;;;;;;;17.55;10.50;;;;;;;;;;4939291;29;20033;-75
2021/07/13 02:40:53;;;;;;;13.18;10.70;;;;;;;;;;4946443;29;20032;-75
2021/07/13 02:43:20;;;;;;;13.90;10.30;;;;;;;;;;4948856;29;20031;-78
2021/07/13 02:45:46;;;;;;;11.65;10.55;;;;;;;;;;4943327;29;20035;-80
2021/07/13 02:48:13;;;;;;;11.75;10.48;;;;;;;;;;4945790;29;20060;-77
2021/07/13 02:50:41;;;;;;;13.73;10.35;;;;;;;;;;4947303;29;20035;-80
2021/07/13 02:53:08;;;;;;;14.02;9.82;;;;;;;;;;4953897;29;20042;-78
2021/07/13 02:55:35;;;;;;;11.68;10.48;;;;;;;;;;4941454;29;20035;-74
2021/07/13 02:58:02;;;;;;;11.85;9.90;;;;;;;;;;4943624;29;20032;-74
2021/07/13 03:00:29;;;;;;;12.88;10.85;;;;;;;;;;4938349;29;20035;-76
2021/07/13 03:02:55;;;;;;;13.23;10.27;;;;;;;;;;4944717;29;20114;-72
2021/07/13 03:05:23;;;;;;;11.50;9.95;;;;;;;;;;4936742;29;20134;-77
2021/07/13 03:07:50;;;;;;;11.02;9.93;;;;;;;;;;4941156;29;20024;-76
2021/07/13 03:10:20;;;;;;;10.68;9.65;;;;;;;;;;4944156;29;20039;-70
2021/07/13 03:12:47;;;;;;;12.52;10.25;;;;;;;;;;4944824;29;20038;-69
2021/07/13 03:15:13;;;;;;;12.93;10.63;;;;;;;;;;4951172;29;20043;-77
2021/07/13 03:17:40;;;;;;;14.75;10.00;;;;;;;;;;4949846;29;20125;-79
2021/07/13 03:20:08;;;;;;;11.82;10.05;;;;;;;;;;4948080;29;20078;-68
2021/07/13 03:22:39;;;;;;;15.07;9.88;;;;;;;;;;4951542;29;20168;-70
2021/07/13 03:25:06;;;;;;;11.07;10.02;;;;;;;;;;4923569;29;20070;-73
2021/07/13 03:27:33;;;;;;;11.00;9.63;;;;;;;;;;4945655;29;20079;-78
2021/07/13 03:30:01;;;;;;;11.50;9.57;;;;;;;;;;4944336;29;20039;-77
2021/07/13 03:32:27;;;;;;;11.32;9.63;;;;;;;;;;4949603;29;20020;-71
2021/07/13 03:34:53;;;;;;;15.73;10.32;;;;;;;;;;4933287;29;20561;-68
2021/07/13 03:37:20;;;;;;;15.15;9.88;;;;;;;;;;4937136;29;20102;-78
2021/07/13 03:39:47;;;;;;;13.88;10.13;;;;;;;;;;4947385;29;20035;-80
2021/07/13 03:42:13;;;;;;;10.70;9.60;;;;;;;;;;4939364;29;20031;-73
2021/07/13 03:44:40;;;;;;;11.57;10.30;;;;;;;;;;4937405;29;20051;-79
2021/07/13 03:47:23;;;;;;;11.88;9.45;;;;;;;;;;4952118;29;20055;-78
2021/07/13 03:49:50;;;;;;;11.30;9.80;;;;;;;;;;4943903;29;20036;-79
2021/07/13 03:52:16;;;;;;;13.25;10.07;;;;;;;;;;4936059;29;20032;-74
2021/07/13 03:54:42;;;;;;;13.95;10.05;;;;;;;;;;4944336;29;20389;-77
2021/07/13 03:57:09;;;;;;;14.20;9.30;;;;;;;;;;4944480;29;20063;-72
2021/07/13 03:59:35;;;;;;;11.05;9.52;;;;;;;;;;4951165;29;20110;-78
2021/07/13 04:02:01;;;;;;;13.80;9.65;;;;;;;;;;4936666;29;20035;-74
2021/07/13 04:04:27;;;;;;;11.40;9.27;;;;;;;;;;4940448;29;20146;-80
2021/07/13 04:07:00;;;;;;;13.05;9.75;;;;;;;;;;4945576;29;20020;-75
2021/07/13 04:09:29;;;;;;;14.13;9.60;;;;;;;;;;4943885;29;20042;-72
2021/07/13 04:11:55;;;;;;;13.38;9.52;;;;;;;;;;4940857;29;20043;-72
2021/07/13 04:14:21;;;;;;;10.80;9.15;;;;;;;;;;4936906;29;20390;-73
2021/07/13 04:16:47;;;;;;;15.63;10.18;;;;;;;;;;4936760;29;20060;-69
2021/07/13 04:19:13;;;;;;;14.18;9.13;;;;;;;;;;4946233;29;20454;-70
2021/07/13 04:21:39;;;;;;;12.20;9.38;;;;;;;;;;4941515;29;20154;-79
2021/07/13 04:24:06;;;;;;;15.05;9.18;;;;;;;;;;4939018;29;20042;-76
2021/07/13 04:26:32;;;;;;;28.95;10.90;;;;;;;;;;4943231;29;20063;-68
2021/07/13 04:28:58;;;;;;;11.00;8.82;;;;;;;;;;4931164;29;20030;-73
2021/07/13 04:31:30;;;;;;;11.50;8.70;;;;;;;;;;4930858;29;20217;-71
2021/07/13 04:34:06;;;;;;;11.85;8.75;;;;;;;;;;4921364;29;20479;-74
2021/07/13 04:36:32;;;;;;;14.05;9.07;;;;;;;;;;4919121;29;20087;-71
2021/07/13 04:38:59;;;;;;;16.05;9.02;;;;;;;;;;4938543;29;20429;-72
2021/07/13 04:41:25;;;;;;;20.73;8.63;;;;;;;;;;4947180;29;20044;-70
2021/07/13 04:43:51;;;;;;;12.32;8.50;;;;;;;;;;4936525;29;20047;-70
2021/07/13 04:46:17;;;;;;;26.42;9.65;;;;;;;;;;4936509;28;20520;-69
2021/07/13 04:48:43;;;;;;;16.85;9.27;;;;;;;;;;4947481;29;20500;-70
2021/07/13 04:51:09;;;;;;;14.05;9.10;;;;;;;;;;4932710;29;20478;-70
2021/07/13 04:53:35;;;;;;;16.77;9.52;;;;;;;;;;4917155;29;20039;-69
2021/07/13 04:56:01;;;;;;;16.33;9.30;;;;;;;;;;4952635;29;20110;-70
2021/07/13 04:58:27;;;;;;;18.42;9.10;;;;;;;;;;4945205;29;20042;-70
2021/07/13 05:00:53;;;;;;;15.20;9.73;;;;;;;;;;4943052;29;20441;-69
2021/07/13 05:03:19;;;;;;;20.70;10.50;;;;;;;;;;4935667;29;20031;-70
2021/07/13 05:05:45;;;;;;;17.23;9.75;;;;;;;;;;4935099;29;20128;-70
2021/07/13 05:08:11;;;;;;;14.02;9.68;;;;;;;;;;4928871;29;20046;-69
2021/07/13 05:10:37;;;;;;;12.70;9.88;;;;;;;;;;4931023;29;20171;-70
2021/07/13 05:13:09;;;;;;;14.57;10.07;;;;;;;;;;4930453;29;20027;-70
2021/07/13 05:15:42;;;;;;;15.68;10.35;;;;;;;;;;4928525;29;20031;-70
2021/07/13 05:18:08;;;;;;;;;;;;;;;;;;4933866;29;20052;-70
2021/07/13 05:20:34;;;;;;;16.42;9.77;;;;;;;;;;4933614;29;19942;-69
2021/07/13 05:23:06;;;;;;;22.90;10.10;;;;;;;;;;4932754;29;20024;-70
2021/07/13 05:25:33;;;;;;;30.38;10.43;;;;;;;;;;4934631;29;20043;-70
2021/07/13 05:27:59;;;;;;;22.58;10.32;;;;;;;;;;4933992;29;20091;-69
2021/07/13 05:30:28;;;;;;;16.35;9.65;;;;;;;;;;4931986;29;20086;-71
2021/07/13 05:32:54;;;;;;;17.10;9.80;;;;;;;;;;4934321;29;20119;-70
2021/07/13 05:35:20;;;;;;;17.15;10.57;;;;;;;;;;4930297;29;20028;-70
2021/07/13 05:37:47;;;;;;;22.35;10.65;;;;;;;;;;4932396;29;20098;-71
2021/07/13 05:40:13;;;;;;;25.17;10.80;;;;;;;;;;4938921;29;20039;-71
2021/07/13 05:42:47;;;;;;;35.47;11.35;;;;;;;;;;4935811;29;20042;-71
2021/07/13 05:45:13;;;;;;;36.63;11.30;;;;;;;;;;4921920;29;20131;-77
2021/07/13 05:47:39;;;;;;;44.55;12.80;;;;;;;;;;4941143;29;20454;-66
2021/07/13 05:50:06;;;;;;;26.05;11.75;;;;;;;;;;4933403;29;20089;-67
2021/07/13 05:52:32;;;;;;;18.50;10.68;;;;;;;;;;4933940;29;20024;-68
2021/07/13 05:54:59;;;;;;;17.52;11.02;;;;;;;;;;4932144;29;20076;-72
2021/07/13 05:57:26;;;;;;;21.63;10.45;;;;;;;;;;4933164;29;20122;-76
2021/07/13 05:59:52;;;;;;;15.93;10.48;;;;;;;;;;4934565;29;20026;-74
2021/07/13 06:02:18;;;;;;;17.05;10.10;;;;;;;;;;4935172;29;20074;-70
2021/07/13 06:04:44;;;;;;;16.98;10.18;;;;;;;;;;4935988;29;20075;-73
2021/07/13 06:07:10;;;;;;;22.05;10.60;;;;;;;;;;4935688;29;20024;-79
2021/07/13 06:09:36;;;;;;;16.88;9.93;;;;;;;;;;4936335;29;20036;-85
2021/07/13 06:12:03;;;;;;;21.88;10.93;;;;;;;;;;4938293;29;20505;-85
2021/07/13 06:14:36;;;;;;;25.67;10.70;;;;;;;;;;4918549;29;20047;-70
2021/07/13 06:17:03;;;;;;;18.42;10.93;;;;;;;;;;4932917;29;21188;-69
2021/07/13 06:19:38;;;;;;;25.38;10.50;;;;;;;;;;4931159;29;20509;-68
2021/07/13 06:22:05;;;;;;;33.85;11.00;;;;;;;;;;4949155;29;20162;-68
2021/07/13 06:24:31;;;;;;;27.02;10.90;;;;;;;;;;4932787;29;20043;-66
2021/07/13 06:26:57;;;;;;;30.38;10.75;;;;;;;;;;4931185;29;20095;-73
2021/07/13 06:29:24;;;;;;;18.70;10.35;;;;;;;;;;4940279;29;20500;-70
2021/07/13 06:31:51;;;;;;;24.50;10.60;;;;;;;;;;4936593;29;20031;-85
2021/07/13 06:34:17;;;;;;;28.90;11.18;;;;;;;;;;4933094;29;20027;-82
2021/07/13 06:36:46;;;;;;;18.35;11.25;;;;;;;;;;4934578;29;20031;-88
2021/07/13 06:39:12;;;;;;;20.90;10.18;;;;;;;;;;4912254;29;20034;-81
2021/07/13 06:41:40;;;;;;;28.67;10.98;;;;;;;;;;4916322;29;20047;-87
2021/07/13 06:44:06;;;;;;;30.77;10.63;;;;;;;;;;4933708;29;20425;-78
2021/07/13 06:46:34;;;;;;;21.95;9.40;;;;;;;;;;4925997;29;20024;-79
2021/07/13 06:49:01;;;;;;;25.85;10.80;;;;;;;;;;4930540;29;20473;-75
2021/07/13 06:51:27;;;;;;;20.40;9.90;;;;;;;;;;4931692;29;20023;-78
2021/07/13 06:53:53;;;;;;;15.75;9.93;;;;;;;;;;4926374;29;20032;-80
2021/07/13 06:56:19;;;;;;;16.83;9.68;;;;;;;;;;4925243;29;20497;-72
2021/07/13 06:58:45;;;;;;;18.30;10.25;;;;;;;;;;4930015;29;20031;-70
2021/07/13 07:01:11;;;;;;;72.50;14.30;;;;;;;;;;4924587;29;20028;-72
2021/07/13 07:03:37;;;;;;;17.27;10.75;;;;;;;;;;4929230;29;20103;-74
2021/07/13 07:06:03;;;;;;;25.75;9.68;;;;;;;;;;4916736;29;20042;-86
2021/07/13 07:08:30;;;;;;;25.15;10.63;;;;;;;;;;4913406;29;20039;-76
2021/07/13 07:10:56;;;;;;;19.25;10.40;;;;;;;;;;4928684;29;20118;-79
2021/07/13 07:13:22;;;;;;;22.45;9.65;;;;;;;;;;4932932;29;20545;-82
2021/07/13 07:15:48;;;;;;;17.63;10.13;;;;;;;;;;4927819;29;20064;-79
2021/07/13 07:18:14;;;;;;;20.77;9.95;;;;;;;;;;4920590;29;20055;-79
2021/07/13 07:20:42;;;;;;;17.50;10.45;;;;;;;;;;4939886;29;20533;-75
2021/07/13 07:23:09;;;;;;;14.05;10.50;;;;;;;;;;4935597;29;20044;-78
2021/07/13 07:25:35;;;;;;;20.25;10.90;;;;;;;;;;4929165;29;20047;-72
2021/07/13 07:28:01;;;;;;;25.10;11.20;;;;;;;;;;4929287;29;20046;-71
2021/07/13 07:30:29;;;;;;;19.75;11.13;;;;;;;;;;4938101;29;20035;-71
2021/07/13 07:32:58;;;;;;;25.40;11.05;;;;;;;;;;4933779;29;20114;-79
2021/07/13 07:35:24;;;;;;;20.95;11.57;;;;;;;;;;4933674;29;20135;-76
2021/07/13 07:37:53;;;;;;;20.40;11.23;;;;;;;;;;4934270;29;20028;-70
2021/07/13 07:40:21;;;;;;;16.35;11.45;;;;;;;;;;4917809;29;20028;-74
2021/07/13 07:42:48;;;;;;;18.55;11.82;;;;;;;;;;4933390;29;20035;-73
2021/07/13 07:45:14;;;;;;;17.55;11.18;;;;;;;;;;4924981;29;20040;-68
2021/07/13 07:47:41;;;;;;;19.42;11.45;;;;;;;;;;4924420;29;20539;-69
2021/07/13 07:50:08;;;;;;;17.02;11.02;;;;;;;;;;4931193;29;20070;-67
2021/07/13 07:52:34;;;;;;;19.38;11.45;;;;;;;;;;4928964;29;20024;-71
2021/07/13 07:55:01;;;;;;;15.02;11.38;;;;;;;;;;4933719;29;20058;-77
2021/07/13 07:57:27;;;;;;;13.85;10.48;;;;;;;;;;4910635;29;20175;-73
2021/07/13 07:59:53;;;;;;;17.25;11.05;;;;;;;;;;4916648;29;20074;-89
2021/07/13 08:02:22;;;;;;;19.10;11.27;;;;;;;;;;4918702;29;20124;-66
2021/07/13 08:04:48;;;;;;;29.02;10.43;;;;;;;;;;4917265;29;20063;-82
2021/07/13 08:07:19;;;;;;;17.10;10.82;;;;;;;;;;4928940;29;20020;-77
2021/07/13 08:09:45;;;;;;;21.52;10.68;;;;;;;;;;4923819;29;20032;-85
2021/07/13 08:12:14;;;;;;;21.17;11.05;;;;;;;;;;4921115;29;20055;-84
2021/07/13 08:14:40;;;;;;;20.02;11.80;;;;;;;;;;4927795;29;20520;-75
2021/07/13 08:17:06;;;;;;;15.85;11.00;;;;;;;;;;4938174;29;20497;-79
2021/07/13 08:19:38;;;;;;;17.95;12.07;;;;;;;;;;4929415;29;20084;-76
2021/07/13 08:22:04;;;;;;;19.67;11.48;;;;;;;;;;4919188;29;20486;-85
2021/07/13 08:24:30;;;;;;;16.55;11.20;;;;;;;;;;4932722;29;20044;-74
2021/07/13 08:26:56;;;;;;;17.00;10.75;;;;;;;;;;4936386;29;20031;-79
2021/07/13 08:29:22;;;;;;;16.60;10.40;;;;;;;;;;4933479;29;20034;-76
2021/07/13 08:31:48;;;;;;;18.90;11.70;;;;;;;;;;4934759;29;20023;-75
2021/07/13 08:34:17;;;;;;;25.85;10.85;;;;;;;;;;4917899;29;20071;-77
2021/07/13 08:36:43;;;;;;;15.68;11.10;;;;;;;;;;4940074;29;20031;-74
2021/07/13 08:39:09;;;;;;;12.13;10.82;;;;;;;;;;4932869;29;20496;-79
2021/07/13 08:41:36;;;;;;;24.73;11.52;;;;;;;;;;4933497;29;20489;-80
2021/07/13 08:44:04;;;;;;;15.88;10.85;;;;;;;;;;4930754;29;20799;-77
2021/07/13 08:46:32;;;;;;;18.48;10.82;;;;;;;;;;4934503;29;20055;-72
2021/07/13 08:49:03;;;;;;;13.93;11.43;;;;;;;;;;4931696;29;20032;-77
2021/07/13 08:51:29;;;;;;;12.32;11.02;;;;;;;;;;4933236;29;20051;-86
2021/07/13 08:53:55;;;;;;;24.58;11.02;;;;;;;;;;4916007;29;20016;-82
2021/07/13 08:56:21;;;;;;;18.13;11.30;;;;;;;;;;4934405;29;20032;-88
2021/07/13 08:58:47;;;;;;;16.17;10.95;;;;;;;;;;4915146;29;20155;-67
2021/07/13 09:01:13;;;;;;;12.90;10.75;;;;;;;;;;4927817;29;20035;-68
2021/07/13 09:03:53;;;;;;;17.75;10.95;;;;;;;;;;4932704;29;20069;-65
2021/07/13 09:06:19;;;;;;;15.57;11.20;;;;;;;;;;4934178;29;20122;-69
2021/07/13 09:08:45;;;;;;;19.35;11.50;;;;;;;;;;4932300;29;20031;-68
2021/07/13 09:11:18;;;;;;;17.98;10.98;;;;;;;;;;4932335;29;20067;-67
2021/07/13 09:13:46;;;;;;;13.82;11.10;;;;;;;;;;4937054;29;20034;-66
2021/07/13 09:16:19;;;;;;;14.40;11.65;;;;;;;;;;4935312;29;20114;-68
2021/07/13 09:18:52;;;;;;;22.55;11.82;;;;;;;;;;4930068;29;20172;-67
2021/07/13 09:21:20;;;;;;;15.50;11.30;;;;;;;;;;4938389;29;20485;-83
2021/07/13 09:24:05;;;;;;;14.75;11.32;;;;;;;;;;4937927;29;20051;-79
2021/07/13 09:26:41;;;;;;;14.48;11.57;;;;;;;;;;4935989;29;20035;-78
2021/07/13 09:29:26;;;;;;;14.10;11.57;;;;;;;;;;4940664;29;20023;-77
2021/07/13 09:31:52;;;;;;;14.63;11.20;;;;;;;;;;4917399;29;20437;-78
2021/07/13 09:34:19;;;;;;;18.60;11.68;;;;;;;;;;4937839;29;20037;-78
2021/07/13 09:36:52;;;;;;;18.92;11.15;;;;;;;;;;4937875;29;20055;-71
2021/07/13 09:39:22;;;;;;;14.65;11.85;;;;;;;;;;4923984;29;20044;-68
2021/07/13 09:41:52;;;;;;;13.32;10.90;;;;;;;;;;4932839;29;20023;-81
2021/07/13 09:44:22;;;;;;;19.73;11.57;;;;;;;;;;4933763;29;20086;-81
2021/07/13 09:46:51;;;;;;;16.90;11.45;;;;;;;;;;4917898;29;20035;-86
2021/07/13 09:49:32;;;;;;;18.65;11.15;;;;;;;;;;4917558;29;20454;-82
2021/07/13 09:52:31;;;;;;;20.45;11.75;;;;;;;;;;4925170;29;20047;-89
2021/07/13 09:54:57;;;;;;;18.05;12.07;;;;;;;;;;4918639;29;20074;-72
2021/07/13 09:57:24;;;;;;;23.48;11.60;;;;;;;;;;4918499;29;20508;-74
2021/07/13 09:59:56;;;;;;;14.60;11.18;;;;;;;;;;4917767;29;20046;-76
2021/07/13 10:02:28;;;;;;;18.00;11.90;;;;;;;;;;4939012;29;20024;-77
2021/07/13 10:04:56;;;;;;;20.15;11.82;;;;;;;;;;4933411;29;20125;-73
2021/07/13 10:07:22;;;;;;;13.98;11.40;;;;;;;;;;4935554;29;20028;-76
2021/07/13 10:09:54;;;;;;;20.08;11.90;;;;;;;;;;4937100;29;20110;-76
2021/07/13 10:12:22;;;;;;;19.75;11.80;;;;;;;;;;4934113;29;20024;-71
2021/07/13 10:14:50;;;;;;;18.65;12.30;;;;;;;;;;4941106;29;20027;-73
2021/07/13 10:17:17;;;;;;;14.00;11.45;;;;;;;;;;4930651;29;20058;-69
2021/07/13 10:19:56;;;;;;;40.90;12.07;;;;;;;;;;4925561;29;20394;-73
2021/07/13 10:22:26;;;;;;;17.67;12.10;;;;;;;;;;4930995;29;20031;-76
2021/07/13 10:24:57;;;;;;;17.35;11.90;;;;;;;;;;4930238;29;20496;-76
2021/07/13 10:27:28;;;;;;;15.65;11.20;;;;;;;;;;4913011;29;20054;-76
2021/07/13 10:29:55;;;;;;;21.55;12.13;;;;;;;;;;4926179;29;21689;-77
2021/07/13 10:32:24;;;;;;;27.10;12.63;;;;;;;;;;4930015;29;20091;-77
2021/07/13 10:34:54;;;;;;;18.25;12.32;;;;;;;;;;4933470;29;20034;-70
2021/07/13 10:37:38;;;;;;;39.10;13.95;;;;;;;;;;4914494;29;20076;-70
2021/07/13 10:40:06;;;;;;;17.60;12.18;;;;;;;;;;4929168;29;20074;-71
2021/07/13 10:42:42;;;;;;;13.90;12.27;;;;;;;;;;4928994;29;20032;-71
2021/07/13 10:45:14;;;;;;;19.30;12.18;;;;;;;;;;4937708;29;20503;-70
2021/07/13 10:47:57;;;;;;;160.88;18.98;;;;;;;;;;4933411;29;20040;-72
2021/07/13 10:50:24;;;;;;;55.92;13.65;;;;;;;;;;4931951;29;20475;-73
2021/07/13 10:52:50;;;;;;;18.45;12.45;;;;;;;;;;4931062;29;20032;-81
2021/07/13 10:55:32;;;;;;;23.85;12.93;;;;;;;;;;4931951;29;20024;-74
2021/07/13 10:58:10;;;;;;;17.00;11.80;;;;;;;;;;4936433;29;20039;-83
2021/07/13 11:00:54;;;;;;;23.10;12.38;;;;;;;;;;4917104;29;20034;-85
2021/07/13 11:03:40;;;;;;;16.52;12.43;;;;;;;;;;4914153;29;20032;-83
2021/07/13 11:06:23;;;;;;;20.65;12.45;;;;;;;;;;4906104;29;20051;-81
2021/07/13 11:08:51;;;;;;;;;;;;;;;;;;4921685;29;20100;-92
2021/07/13 11:11:17;;;;;;;26.55;12.90;;;;;;;;;;4923655;29;20269;-82
2021/07/13 11:13:45;;;;;;;19.27;12.73;;;;;;;;;;4921422;29;20434;-90
2021/07/13 11:16:14;;;;;;;26.00;12.98;;;;;;;;;;4931421;29;20054;-82
2021/07/13 11:18:41;;;;;;;17.15;12.70;;;;;;;;;;4920114;29;20055;-86
2021/07/13 11:21:24;;;;;;;18.70;11.85;;;;;;;;;;4928620;29;20122;-89
2021/07/13 11:23:51;;;;;;;20.05;12.65;;;;;;;;;;4924570;29;20034;-77
2021/07/13 11:26:22;;;;;;;19.73;11.55;;;;;;;;;;4938566;29;20419;-76
2021/07/13 11:28:49;;;;;;;16.63;10.63;;;;;;;;;;4934658;29;20666;-80
2021/07/13 11:31:31;;;;;;;16.88;10.35;;;;;;;;;;4937358;29;20023;-83
2021/07/13 11:33:58;;;;;;;16.75;12.00;;;;;;;;;;4938719;29;20028;-77
2021/07/13 11:36:34;;;;;;;19.38;11.70;;;;;;;;;;4940679;29;20028;-74
2021/07/13 11:39:02;;;;;;;14.30;12.02;;;;;;;;;;4934722;29;20038;-78
2021/07/13 11:41:28;;;;;;;20.20;12.77;;;;;;;;;;4933881;29;20055;-82
2021/07/13 11:43:59;;;;;;;18.83;12.00;;;;;;;;;;4938987;29;20036;-83
2021/07/13 11:46:27;;;;;;;16.00;11.32;;;;;;;;;;4940822;29;20257;-81
2021/07/13 11:48:56;;;;;;;20.70;11.35;;;;;;;;;;4937440;29;20042;-82
2021/07/13 11:51:24;;;;;;;17.20;11.02;;;;;;;;;;4938408;29;20031;-82
2021/07/13 11:54:16;;;;;;;15.27;11.80;;;;;;;;;;4917083;29;20020;-77
2021/07/13 11:56:46;;;;;;;15.93;11.52;;;;;;;;;;4928685;29;20078;-75
2021/07/13 11:59:18;;;;;;;15.75;11.18;;;;;;;;;;4930650;29;20110;-72
2021/07/13 12:01:50;;;;;;;13.35;10.65;;;;;;;;;;4937986;29;20114;-80
2021/07/13 12:04:16;;;;;;;17.95;10.15;;;;;;;;;;4939868;29;20055;-82
2021/07/13 12:06:43;;;;;;;12.38;9.40;;;;;;;;;;4916506;29;20035;-88
2021/07/13 12:09:13;;;;;;;11.98;9.45;;;;;;;;;;4913579;29;20063;-71
2021/07/13 12:11:41;;;;;;;18.75;10.48;;;;;;;;;;4935047;29;20039;-70
2021/07/13 12:14:10;;;;;;;13.20;10.68;;;;;;;;;;4933915;29;20027;-83
2021/07/13 12:16:36;;;;;;;12.48;9.70;;;;;;;;;;4932276;29;20043;-70
2021/07/13 12:19:13;;;;;;;16.52;10.43;;;;;;;;;;4925445;29;20036;-84
2021/07/13 12:21:43;;;;;;;14.40;10.02;;;;;;;;;;4940978;29;20043;-87
2021/07/13 12:24:13;;;;;;;15.23;9.75;;;;;;;;;;4914713;29;20562;-72
2021/07/13 12:26:39;;;;;;;17.02;10.85;;;;;;;;;;4936947;29;20047;-74
2021/07/13 12:29:05;;;;;;;36.38;10.55;;;;;;;;;;4941616;29;20058;-77
2021/07/13 12:31:35;;;;;;;11.85;9.25;;;;;;;;;;4936416;29;20051;-72
2021/07/13 12:34:03;;;;;;;11.30;9.20;;;;;;;;;;4935399;29;20566;-76
2021/07/13 12:36:30;;;;;;;11.80;9.48;;;;;;;;;;4932377;29;20051;-73
2021/07/13 12:38:57;;;;;;;11.60;9.27;;;;;;;;;;4935163;29;20020;-74
2021/07/13 12:41:29;;;;;;;34.30;11.00;;;;;;;;;;4931714;29;20040;-70
2021/07/13 12:43:55;;;;;;;10.70;9.27;;;;;;;;;;4916076;29;20028;-74
2021/07/13 12:46:31;;;;;;;10.40;8.80;;;;;;;;;;4934528;29;20039;-75
2021/07/13 12:48:57;;;;;;;9.68;8.68;;;;;;;;;;4935429;29;20035;-76
2021/07/13 12:51:23;;;;;;;10.07;8.80;;;;;;;;;;4931630;29;20587;-78
2021/07/13 12:54:09;;;;;;;13.88;9.20;;;;;;;;;;4935982;29;20072;-70
2021/07/13 12:56:36;;;;;;;10.48;9.25;;;;;;;;;;4928737;29;20042;-74
2021/07/13 12:59:08;;;;;;;13.43;8.00;;;;;;;;;;4941960;29;20028;-73
2021/07/13 13:01:35;;;;;;;15.73;8.93;;;;;;;;;;4935296;29;20016;-67
2021/07/13 13:04:11;;;;;;;30.20;8.52;;;;;;;;;;4936763;29;20033;-76
2021/07/13 13:06:38;;;;;;;11.95;7.80;;;;;;;;;;4940270;28;20074;-69
2021/07/13 13:09:08;;;;;;;10.90;8.32;;;;;;;;;;4935030;29;20222;-76
2021/07/13 13:11:34;;;;;;;9.25;8.13;;;;;;;;;;4941828;29;20023;-78
2021/07/13 13:14:02;;;;;;;11.63;8.20;;;;;;;;;;4934001;29;20465;-78
2021/07/13 13:16:34;;;;;;;13.57;8.88;;;;;;;;;;4934376;29;20553;-63
2021/07/13 13:19:01;;;;;;;15.32;8.90;;;;;;;;;;4934512;29;20139;-72
2021/07/13 13:21:28;;;;;;;10.90;8.30;;;;;;;;;;4934068;29;20500;-66
2021/07/13 13:23:56;;;;;;;11.65;8.90;;;;;;;;;;4932124;29;20036;-74
2021/07/13 13:26:22;;;;;;;36.55;9.60;;;;;;;;;;4916368;29;20450;-70
2021/07/13 13:28:48;;;;;;;12.32;8.57;;;;;;;;;;4940890;29;20437;-73
2021/07/13 13:31:14;;;;;;;13.48;8.60;;;;;;;;;;4935183;29;20035;-73
2021/07/13 13:33:42;;;;;;;12.02;8.10;;;;;;;;;;4928207;29;20024;-73
2021/07/13 13:38:41;;;;;;;11.15;7.40;;;;;;;;;;4932338;29;20038;-72
2021/07/13 13:41:08;;;;;;;9.90;7.25;;;;;;;;;;4934591;29;20024;-71
2021/07/13 13:43:34;;;;;;;17.48;7.57;;;;;;;;;;4938629;29;20028;-69
2021/07/13 13:46:00;;;;;;;11.27;7.35;;;;;;;;;;4934292;29;20482;-72
2021/07/13 13:48:29;;;;;;;8.50;7.03;;;;;;;;;;4923026;29;20062;-71
2021/07/13 13:51:03;;;;;;;12.00;7.55;;;;;;;;;;4931445;29;20058;-71
2021/07/13 13:53:35;;;;;;;9.90;7.60;;;;;;;;;;4916265;29;20031;-70
2021/07/13 13:56:04;;;;;;;;;;;;;;;;;;4916642;29;20127;-75
2021/07/13 13:58:30;;;;;;;10.50;7.38;;;;;;;;;;4912990;29;19919;-81
2021/07/13 14:00:58;;;;;;;16.25;7.40;;;;;;;;;;4917586;29;20043;-77
2021/07/13 14:03:26;;;;;;;12.20;7.32;;;;;;;;;;4915570;29;20063;-76
2021/07/13 14:05:52;;;;;;;11.75;8.23;;;;;;;;;;4921710;29;20070;-82
2021/07/13 14:08:18;;;;;;;9.90;7.40;;;;;;;;;;4924387;29;20100;-70
2021/07/13 14:10:44;;;;;;;10.95;7.38;;;;;;;;;;4934834;29;20472;-71
2021/07/13 14:13:28;;;;;;;11.35;7.30;;;;;;;;;;4935234;29;20028;-81
2021/07/13 14:15:54;;;;;;;11.15;6.95;;;;;;;;;;4916607;29;20027;-75
2021/07/13 14:18:21;;;;;;;8.75;6.80;;;;;;;;;;4938788;28;20048;-75
2021/07/13 14:20:47;;;;;;;12.18;7.03;;;;;;;;;;4937030;29;20038;-72
2021/07/13 14:23:13;;;;;;;10.43;6.97;;;;;;;;;;4940402;29;20020;-74
2021/07/13 14:25:39;;;;;;;10.70;6.50;;;;;;;;;;4942875;29;20048;-72
2021/07/13 14:28:13;;;;;;;51.45;9.13;;;;;;;;;;4921894;29;20055;-73
2021/07/13 14:30:40;;;;;;;12.80;6.60;;;;;;;;;;4934874;29;20074;-80
2021/07/13 14:33:06;;;;;;;15.48;7.20;;;;;;;;;;4934897;29;20035;-84